Strona główna
METAR-TAF:

METAR-TAF

Lotnisko :

Port lotniczy Khon Kaen

Khon Kaen, Tajlandia

Szerokość geograficzna: 16-26N, Długość geograficzna: 102-50E, wysokość: 165 m

Aktualna obserwacja pogody

Raport powstał 16 minut temu, godzina 05:00 UTC
Wiatr 11 kt od północny wschód, zmienny między północno-północny wschód i wschód
Temperatura 23°C
Wilgotność 29%
Ciśnienie 1020 hPa
Widzialność: 9000 m

METAR: VTUK 070500Z 05011KT 020V080 9000 NSC 23/04 Q1020 NOSIG

czas: 12:16 (05:16 UTC)

Prognoza

Raport powstał 6 godziny i 16 minut temu, godzina 23:00 UTC
Prognoza ważna od 07 godzina 00 UTC do 07 godzina 24 UTC
Wiatr 10 kt od północny wschód
Widzialność: 8000 m

TAF: VTUK 062300Z 0700/0724 04010KT 8000 NSC

Obserwacja i prognoza pogody dla ponad 4000 lotnisk (raport METAR i TAF).

Dostępne stacje oznaczono żółtymi i czerwonymi punktami na mapie.

Najedź kursorem aby zobaczyć nazwę stacji.

Kliknij aby zobaczyć obserwacje i prognozy pogody.

Aby zmienić mapę: kliknij na zielony przycisk z czarnym krzyżykiem, aby powiększyć; na zielony przycisk z myślnikiem, aby pomniejszyć; na zielone strzałki, aby przejść do map sąsiednich.


METAR-TAF: